createdAt,value
2017-09-02T00:00:46.540Z,12.40
2017-09-02T00:06:14.711Z,12.50
2017-09-02T00:11:42.934Z,12.40
2017-09-02T00:17:11.096Z,12.40
2017-09-02T00:22:39.247Z,12.40
2017-09-02T00:28:07.421Z,12.40
2017-09-02T00:33:35.586Z,12.40
2017-09-02T00:39:03.790Z,12.40
2017-09-02T00:44:31.968Z,12.40
2017-09-02T00:50:00.209Z,12.30
2017-09-02T00:55:28.407Z,12.30
2017-09-02T01:00:56.565Z,12.20
2017-09-02T01:06:25.846Z,12.20
2017-09-02T01:11:54.108Z,12.20
2017-09-02T01:17:22.391Z,12.10
2017-09-02T01:22:50.678Z,12.10
2017-09-02T01:28:18.927Z,12.10
2017-09-02T01:33:47.172Z,12.00
2017-09-02T01:39:15.394Z,11.90
2017-09-02T01:44:43.647Z,11.80
2017-09-02T01:50:11.798Z,11.80
2017-09-02T01:55:40.981Z,11.70
2017-09-02T02:01:09.128Z,11.70
2017-09-02T02:06:37.291Z,11.70
2017-09-02T02:12:05.448Z,11.60
2017-09-02T02:17:33.609Z,11.60
2017-09-02T02:23:01.754Z,11.60
2017-09-02T02:28:29.885Z,11.60
2017-09-02T02:33:58.043Z,11.60
2017-09-02T02:39:26.223Z,11.70
2017-09-02T02:44:54.408Z,11.70
2017-09-02T02:50:22.558Z,11.70
2017-09-02T02:55:50.733Z,11.60
2017-09-02T03:01:18.886Z,11.60
2017-09-02T03:06:47.032Z,11.60
2017-09-02T03:12:15.186Z,11.50
2017-09-02T03:17:43.341Z,11.50
2017-09-02T03:23:11.517Z,11.50
2017-09-02T03:28:39.692Z,11.40
2017-09-02T03:34:07.883Z,11.30
2017-09-02T03:39:36.031Z,11.20
2017-09-02T03:45:04.182Z,11.10
2017-09-02T03:50:32.314Z,11.10
2017-09-02T03:56:01.413Z,11.10
2017-09-02T04:01:29.563Z,11.00
2017-09-02T04:06:57.696Z,11.00
2017-09-02T04:12:25.983Z,10.90
2017-09-02T04:17:54.154Z,11.00
2017-09-02T04:23:22.310Z,11.00
2017-09-02T04:28:50.608Z,11.00
2017-09-02T04:34:18.817Z,11.00
2017-09-02T04:39:47.014Z,11.00
2017-09-02T04:45:15.193Z,11.00
2017-09-02T04:50:43.384Z,11.00
2017-09-02T04:56:11.557Z,10.90
2017-09-02T05:01:39.718Z,11.00
2017-09-02T05:07:09.865Z,11.00
2017-09-02T05:12:38.005Z,11.00
2017-09-02T05:18:17.247Z,11.00
2017-09-02T05:23:45.431Z,11.00
2017-09-02T05:29:13.894Z,11.00
2017-09-02T05:34:42.068Z,11.00
2017-09-02T05:40:10.222Z,11.00
2017-09-02T05:45:38.427Z,11.00
2017-09-02T05:51:06.617Z,11.00
2017-09-02T05:56:34.769Z,11.00
2017-09-02T06:02:02.922Z,11.00
2017-09-02T06:07:31.101Z,10.90
2017-09-02T06:12:59.238Z,10.90
2017-09-02T06:18:27.395Z,10.90
2017-09-02T06:23:55.683Z,10.90
2017-09-02T06:29:23.832Z,10.90
2017-09-02T06:34:51.992Z,10.90
2017-09-02T06:40:20.169Z,10.90
2017-09-02T06:45:48.415Z,11.00
2017-09-02T06:51:16.588Z,11.00
2017-09-02T06:56:44.821Z,11.00
2017-09-02T07:02:12.978Z,11.00
2017-09-02T07:07:41.128Z,11.00
2017-09-02T07:13:09.278Z,11.00
2017-09-02T07:18:37.446Z,11.10
2017-09-02T07:24:05.580Z,11.20
2017-09-02T07:29:33.707Z,11.20
2017-09-02T07:35:01.865Z,11.20
2017-09-02T07:40:30.159Z,11.30
2017-09-02T07:45:58.348Z,11.30
2017-09-02T07:51:26.504Z,11.30
2017-09-02T07:56:54.652Z,11.30
2017-09-02T08:02:22.826Z,11.40
2017-09-02T08:07:51.039Z,11.50
2017-09-02T08:13:19.235Z,11.40
2017-09-02T08:18:47.526Z,11.40
2017-09-02T08:24:15.748Z,11.40
2017-09-02T08:29:43.891Z,11.40
2017-09-02T08:35:12.043Z,11.40
2017-09-02T08:40:40.197Z,11.40
2017-09-02T08:46:08.355Z,11.50
2017-09-02T08:51:36.513Z,11.60
2017-09-02T08:57:04.650Z,11.60
2017-09-02T09:02:32.797Z,11.70
2017-09-02T09:08:00.944Z,11.70
2017-09-02T09:13:29.097Z,11.70
2017-09-02T09:18:57.231Z,11.90
2017-09-02T09:24:25.363Z,11.90
2017-09-02T09:29:53.524Z,12.00
2017-09-02T09:35:21.671Z,12.20
2017-09-02T09:40:50.582Z,12.20
2017-09-02T09:46:18.759Z,12.20
2017-09-02T09:51:46.950Z,12.30
2017-09-02T09:57:15.457Z,12.40
2017-09-02T10:02:43.667Z,12.50
2017-09-02T10:08:11.875Z,12.70
2017-09-02T10:13:40.015Z,12.80
2017-09-02T10:19:08.168Z,12.90
2017-09-02T10:24:36.360Z,13.00
2017-09-02T10:30:04.524Z,13.00
2017-09-02T10:35:32.678Z,13.00
2017-09-02T10:41:00.832Z,13.00
2017-09-02T10:46:29.024Z,13.00
2017-09-02T10:51:57.181Z,13.00
2017-09-02T10:57:25.319Z,12.90
2017-09-02T11:02:53.476Z,13.00
2017-09-02T11:08:21.629Z,13.10
2017-09-02T11:13:49.775Z,13.10
2017-09-02T11:19:17.926Z,13.10
2017-09-02T11:24:46.096Z,13.10
2017-09-02T11:30:14.251Z,13.00
2017-09-02T11:35:42.403Z,12.90
2017-09-02T11:41:10.589Z,13.00
2017-09-02T11:46:39.775Z,13.10
2017-09-02T11:52:07.922Z,13.10
2017-09-02T11:57:36.075Z,13.10
2017-09-02T12:03:04.250Z,13.10
2017-09-02T12:08:32.384Z,13.20
2017-09-02T12:14:00.528Z,13.20
2017-09-02T12:19:28.672Z,13.20
2017-09-02T12:24:56.825Z,13.30
2017-09-02T12:30:24.946Z,13.50
2017-09-02T12:35:53.069Z,13.70
2017-09-02T12:41:21.228Z,13.90
2017-09-02T12:46:49.397Z,13.80
2017-09-02T12:52:17.591Z,13.80
2017-09-02T12:57:45.761Z,13.80
2017-09-02T13:03:13.935Z,13.70
2017-09-02T13:08:42.099Z,13.60
2017-09-02T13:14:10.286Z,13.50
2017-09-02T13:19:38.408Z,13.50
2017-09-02T13:25:06.601Z,13.50
2017-09-02T13:30:34.752Z,13.60
2017-09-02T13:36:02.911Z,13.60
2017-09-02T13:41:31.049Z,13.70
2017-09-02T13:46:59.177Z,13.90
2017-09-02T13:52:27.328Z,14.20
2017-09-02T13:57:55.488Z,14.10
2017-09-02T14:03:23.705Z,14.10
2017-09-02T14:08:51.855Z,14.10
2017-09-02T14:14:19.991Z,15.50
2017-09-02T14:19:48.124Z,17.20
2017-09-02T14:25:16.289Z,16.00
2017-09-02T14:30:44.493Z,15.10
2017-09-02T14:36:12.645Z,14.60
2017-09-02T14:41:40.798Z,14.20
2017-09-02T14:47:08.948Z,13.90
2017-09-02T14:52:37.088Z,13.70
2017-09-02T14:58:05.259Z,13.60
2017-09-02T15:03:33.407Z,13.60
2017-09-02T15:09:01.542Z,13.50
2017-09-02T15:14:29.674Z,13.50
2017-09-02T15:19:57.815Z,13.40
2017-09-02T15:25:25.952Z,13.40
2017-09-02T15:30:54.098Z,13.40
2017-09-02T15:36:22.221Z,13.30
2017-09-02T15:41:50.396Z,13.30
2017-09-02T15:47:18.547Z,13.20
2017-09-02T15:52:46.697Z,13.20
2017-09-02T15:58:14.839Z,13.20
2017-09-02T16:03:43.071Z,13.10
2017-09-02T16:09:11.241Z,13.00
2017-09-02T16:14:39.377Z,12.90
2017-09-02T16:20:07.533Z,12.90
2017-09-02T16:25:35.683Z,12.90
2017-09-02T16:31:03.835Z,12.90
2017-09-02T16:36:31.974Z,12.90
2017-09-02T16:42:00.116Z,12.90
2017-09-02T16:47:28.256Z,12.80
2017-09-02T16:52:56.398Z,12.80
2017-09-02T16:58:24.547Z,12.70
2017-09-02T17:03:52.668Z,12.60
2017-09-02T17:09:20.815Z,12.50
2017-09-02T17:14:48.987Z,12.50
2017-09-02T17:20:17.172Z,12.40
2017-09-02T17:25:45.331Z,12.40
2017-09-02T17:31:14.248Z,12.30
2017-09-02T17:36:42.409Z,12.20
2017-09-02T17:42:10.568Z,12.10
2017-09-02T17:47:38.740Z,12.10
2017-09-02T17:53:07.639Z,12.10
2017-09-02T17:58:35.792Z,12.10
2017-09-02T18:04:03.956Z,12.10
2017-09-02T18:09:32.130Z,12.00
2017-09-02T18:15:00.282Z,12.10
2017-09-02T18:20:28.445Z,12.00
2017-09-02T18:25:57.748Z,12.00
2017-09-02T18:31:25.904Z,12.00
2017-09-02T18:36:54.068Z,12.00
2017-09-02T18:42:22.222Z,11.90
2017-09-02T18:47:50.376Z,11.90
2017-09-02T18:53:18.549Z,11.90
2017-09-02T18:58:46.713Z,11.90
2017-09-02T19:04:14.905Z,11.80
2017-09-02T19:09:43.058Z,11.80
2017-09-02T19:15:11.230Z,11.80
2017-09-02T19:20:39.381Z,11.70
2017-09-02T19:26:07.521Z,11.70
2017-09-02T19:31:35.697Z,11.70
2017-09-02T19:37:03.951Z,11.70
2017-09-02T19:42:32.113Z,11.60
2017-09-02T19:48:00.270Z,11.60
2017-09-02T19:53:28.428Z,11.60
2017-09-02T19:58:56.571Z,11.60
2017-09-02T20:04:24.704Z,11.60
2017-09-02T20:09:52.850Z,11.50
2017-09-02T20:15:21.013Z,11.50
2017-09-02T20:20:49.185Z,11.50
2017-09-02T20:26:17.357Z,11.50
2017-09-02T20:31:45.544Z,11.50
2017-09-02T20:37:13.763Z,11.40
2017-09-02T20:42:41.986Z,11.40
2017-09-02T20:48:10.150Z,11.40
2017-09-02T20:53:38.328Z,11.40
2017-09-02T20:59:06.467Z,11.40
2017-09-02T21:04:34.618Z,11.40
2017-09-02T21:10:02.761Z,11.40
2017-09-02T21:15:30.921Z,11.40
2017-09-02T21:20:59.068Z,11.40
2017-09-02T21:26:27.242Z,11.40
2017-09-02T21:31:55.400Z,11.30
2017-09-02T21:37:23.549Z,11.30
2017-09-02T21:42:51.690Z,11.30
2017-09-02T21:48:19.872Z,11.30
2017-09-02T21:53:48.053Z,11.30
2017-09-02T21:59:16.240Z,11.20
2017-09-02T22:04:45.194Z,11.20
2017-09-02T22:10:13.342Z,11.20
2017-09-02T22:15:41.510Z,11.20
2017-09-02T22:21:09.658Z,11.20
2017-09-02T22:26:37.795Z,11.20
2017-09-02T22:32:05.916Z,11.20
2017-09-02T22:37:34.051Z,11.20
2017-09-02T22:43:02.195Z,11.20
2017-09-02T22:48:30.364Z,11.20
2017-09-02T22:53:58.504Z,11.20
2017-09-02T22:59:26.668Z,11.20
2017-09-02T23:04:54.806Z,11.20
2017-09-02T23:10:22.947Z,11.20
2017-09-02T23:15:51.070Z,11.20
2017-09-02T23:21:19.218Z,11.20
2017-09-02T23:26:47.364Z,11.10
2017-09-02T23:32:15.508Z,11.10
2017-09-02T23:37:43.643Z,11.10
2017-09-02T23:43:11.826Z,11.10
2017-09-02T23:48:39.987Z,11.10
2017-09-02T23:54:08.140Z,11.10
2017-09-02T23:59:36.284Z,11.10
